createdAt,value
2023-05-12T00:01:55.412Z,3.87
2023-05-12T00:04:22.147Z,3.83
2023-05-12T00:06:48.937Z,4.20
2023-05-12T00:09:15.556Z,3.63
2023-05-12T00:11:42.270Z,3.93
2023-05-12T00:14:09.020Z,3.70
2023-05-12T00:16:35.933Z,3.70
2023-05-12T00:19:02.642Z,3.40
2023-05-12T00:21:29.406Z,4.00
2023-05-12T00:23:56.397Z,4.00
2023-05-12T00:26:23.059Z,4.10
2023-05-12T00:28:49.823Z,3.60
2023-05-12T00:31:16.632Z,4.00
2023-05-12T00:33:43.279Z,4.30
2023-05-12T00:36:10.069Z,3.97
2023-05-12T00:38:37.390Z,4.17
2023-05-12T00:41:04.663Z,4.33
2023-05-12T00:43:31.875Z,4.23
2023-05-12T00:45:59.065Z,4.43
2023-05-12T00:48:26.275Z,4.27
2023-05-12T00:50:54.707Z,4.13
2023-05-12T00:53:21.574Z,3.80
2023-05-12T00:55:48.254Z,4.27
2023-05-12T00:58:15.558Z,4.40
2023-05-12T01:00:42.228Z,3.87
2023-05-12T01:03:09.049Z,3.87
2023-05-12T01:06:04.910Z,4.17
2023-05-12T01:08:32.695Z,4.30
2023-05-12T01:10:59.985Z,4.57
2023-05-12T01:13:27.990Z,4.73
2023-05-12T01:15:56.629Z,4.37
2023-05-12T01:18:24.282Z,5.00
2023-05-12T01:20:53.584Z,4.67
2023-05-12T01:23:27.302Z,5.03
2023-05-12T01:25:55.002Z,4.60
2023-05-12T01:28:21.814Z,4.53
2023-05-12T01:30:50.406Z,5.10
2023-05-12T01:33:17.164Z,5.30
2023-05-12T01:35:43.821Z,5.40
2023-05-12T01:38:10.513Z,5.43
2023-05-12T01:40:39.604Z,5.50
2023-05-12T01:43:06.568Z,5.57
2023-05-12T01:45:33.466Z,4.93
2023-05-12T01:48:00.343Z,5.67
2023-05-12T01:50:27.524Z,5.67
2023-05-12T01:52:54.917Z,5.50
2023-05-12T01:55:22.108Z,5.47
2023-05-12T01:57:55.264Z,5.50
2023-05-12T02:00:22.771Z,5.27
2023-05-12T02:02:52.470Z,5.60
2023-05-12T02:05:19.279Z,5.43
2023-05-12T02:07:49.122Z,5.40
2023-05-12T02:10:16.640Z,4.77
2023-05-12T02:12:43.743Z,4.97
2023-05-12T02:15:10.914Z,4.70
2023-05-12T02:17:42.256Z,4.87
2023-05-12T02:20:11.937Z,5.10
2023-05-12T02:22:38.571Z,4.63
2023-05-12T02:25:05.774Z,4.93
2023-05-12T02:27:32.697Z,5.47
2023-05-12T02:29:59.448Z,5.00
2023-05-12T02:32:28.186Z,4.77
2023-05-12T02:34:58.071Z,4.70
2023-05-12T02:37:24.996Z,4.87
2023-05-12T02:39:51.645Z,4.60
2023-05-12T02:42:18.826Z,4.90
2023-05-12T02:44:45.564Z,4.40
2023-05-12T02:47:12.247Z,5.20
2023-05-12T02:49:38.987Z,4.90
2023-05-12T02:52:06.334Z,4.57
2023-05-12T02:54:33.099Z,4.53
2023-05-12T02:57:04.819Z,4.70
2023-05-12T02:59:31.541Z,5.40
2023-05-12T03:01:58.240Z,5.03
2023-05-12T03:04:24.896Z,5.00
2023-05-12T03:06:51.683Z,5.13
2023-05-12T03:09:18.459Z,5.03
2023-05-12T03:11:45.147Z,4.93
2023-05-12T03:14:11.750Z,5.50
2023-05-12T03:16:38.605Z,4.90
2023-05-12T03:19:05.785Z,5.40
2023-05-12T03:21:32.654Z,5.53
2023-05-12T03:23:59.342Z,5.67
2023-05-12T03:26:26.160Z,6.20
2023-05-12T03:28:52.924Z,5.73
2023-05-12T03:31:19.693Z,5.60
2023-05-12T03:33:46.847Z,6.00
2023-05-12T03:36:13.616Z,6.00
2023-05-12T03:38:40.384Z,6.10
2023-05-12T03:41:07.711Z,5.53
2023-05-12T03:43:35.916Z,5.97
2023-05-12T03:46:03.843Z,6.00
2023-05-12T03:48:30.824Z,6.10
2023-05-12T03:50:57.559Z,5.70
2023-05-12T03:53:24.227Z,5.90
2023-05-12T03:55:51.101Z,5.80
2023-05-12T03:58:18.210Z,5.40
2023-05-12T04:00:46.754Z,5.90
2023-05-12T04:03:13.486Z,5.73
2023-05-12T04:05:40.302Z,5.70
2023-05-12T04:08:07.080Z,6.10
2023-05-12T04:10:43.275Z,5.97
2023-05-12T04:13:09.872Z,6.50
2023-05-12T04:15:36.622Z,5.73
2023-05-12T04:18:03.909Z,5.83
2023-05-12T04:20:30.572Z,6.60
2023-05-12T04:22:57.183Z,5.73
2023-05-12T04:25:23.815Z,5.97
2023-05-12T04:27:50.479Z,6.20
2023-05-12T04:30:17.060Z,6.07
2023-05-12T04:32:44.601Z,6.17
2023-05-12T04:35:11.601Z,5.97
2023-05-12T04:37:38.832Z,5.80
2023-05-12T04:40:07.302Z,5.80
2023-05-12T04:42:34.320Z,5.53
2023-05-12T04:45:01.182Z,5.27
2023-05-12T04:47:28.557Z,5.53
2023-05-12T04:49:55.199Z,5.60
2023-05-12T04:52:23.979Z,5.30
2023-05-12T04:54:52.029Z,5.10
2023-05-12T04:57:18.763Z,5.47
2023-05-12T04:59:45.541Z,5.57
2023-05-12T05:02:12.742Z,5.33
2023-05-12T05:04:39.561Z,5.60
2023-05-12T05:07:06.324Z,5.80
2023-05-12T05:09:35.592Z,6.30
2023-05-12T05:12:03.234Z,5.50
2023-05-12T05:14:29.934Z,5.77
2023-05-12T05:16:57.007Z,5.73
2023-05-12T05:19:36.446Z,6.07
2023-05-12T05:22:11.727Z,5.87
2023-05-12T05:24:38.402Z,6.10
2023-05-12T05:27:05.421Z,7.00
2023-05-12T05:29:32.118Z,5.90
2023-05-12T05:31:58.724Z,6.50
2023-05-12T05:34:25.528Z,6.30
2023-05-12T05:36:52.312Z,6.70
2023-05-12T05:39:18.978Z,6.47
2023-05-12T05:41:46.453Z,6.13
2023-05-12T05:44:13.805Z,5.73
2023-05-12T05:46:40.532Z,6.10
2023-05-12T05:49:07.264Z,5.90
2023-05-12T05:51:34.105Z,5.73
2023-05-12T05:54:00.762Z,6.53
2023-05-12T05:56:27.485Z,6.30
2023-05-12T05:58:54.240Z,6.83
2023-05-12T06:01:20.927Z,6.53
2023-05-12T06:03:47.686Z,6.70
2023-05-12T06:06:15.938Z,6.83
2023-05-12T06:08:42.565Z,6.30
2023-05-12T06:11:09.238Z,7.37
2023-05-12T06:13:36.480Z,6.17
2023-05-12T06:16:03.559Z,7.60
2023-05-12T06:18:30.435Z,7.63
2023-05-12T06:20:57.209Z,6.80
2023-05-12T06:23:23.929Z,7.73
2023-05-12T06:25:50.793Z,7.60
2023-05-12T06:28:17.436Z,7.20
2023-05-12T06:30:44.341Z,6.93
2023-05-12T06:33:11.081Z,7.37
2023-05-12T06:35:37.761Z,6.87
2023-05-12T06:38:06.014Z,7.07
2023-05-12T06:40:33.046Z,7.67
2023-05-12T06:42:59.714Z,7.37
2023-05-12T06:45:26.671Z,7.37
2023-05-12T06:47:53.369Z,7.70
2023-05-12T06:50:20.196Z,7.10
2023-05-12T06:52:51.704Z,6.40
2023-05-12T06:55:20.607Z,6.63
2023-05-12T06:57:47.811Z,6.20
2023-05-12T07:00:14.848Z,7.17
2023-05-12T07:02:41.847Z,7.00
2023-05-12T07:05:08.774Z,7.20
2023-05-12T07:07:36.011Z,6.37
2023-05-12T07:10:02.656Z,6.77
2023-05-12T07:12:29.455Z,6.67
2023-05-12T07:14:56.125Z,6.30
2023-05-12T07:17:22.814Z,6.23
2023-05-12T07:19:49.475Z,6.50
2023-05-12T07:22:16.211Z,6.33
2023-05-12T07:24:43.338Z,6.30
2023-05-12T07:27:10.010Z,6.80
2023-05-12T07:29:36.655Z,6.13
2023-05-12T07:32:03.453Z,5.70
2023-05-12T07:34:32.589Z,6.23
2023-05-12T07:37:02.288Z,6.07
2023-05-12T07:39:30.914Z,5.57
2023-05-12T07:41:58.265Z,5.70
2023-05-12T07:44:26.072Z,5.40
2023-05-12T07:46:52.804Z,4.97
2023-05-12T07:49:19.431Z,5.23
2023-05-12T07:51:46.043Z,4.00
2023-05-12T07:54:13.412Z,4.77
2023-05-12T07:56:40.130Z,4.87
2023-05-12T07:59:07.271Z,3.20
2023-05-12T08:01:34.819Z,2.60
2023-05-12T08:04:01.651Z,3.03
2023-05-12T08:06:28.491Z,3.00
2023-05-12T08:08:58.205Z,2.93
2023-05-12T08:11:26.037Z,2.63
2023-05-12T08:13:53.137Z,3.00
2023-05-12T08:16:19.984Z,3.00
2023-05-12T08:18:46.714Z,2.73
2023-05-12T08:21:13.396Z,2.90
2023-05-12T08:23:40.262Z,2.53
2023-05-12T08:26:06.947Z,3.10
2023-05-12T08:28:34.217Z,2.90
2023-05-12T08:31:04.112Z,2.93
2023-05-12T08:33:31.587Z,3.10
2023-05-12T08:35:58.437Z,3.40
2023-05-12T08:38:25.227Z,3.43
2023-05-12T08:41:10.469Z,3.30
2023-05-12T08:43:45.281Z,3.20
2023-05-12T08:46:13.166Z,3.50
2023-05-12T08:48:40.764Z,3.50
2023-05-12T08:51:11.696Z,3.40
2023-05-12T08:53:42.604Z,3.70
2023-05-12T08:58:42.893Z,3.40
2023-05-12T09:01:11.637Z,2.60
2023-05-12T09:03:38.884Z,2.80
2023-05-12T09:06:06.630Z,2.70
2023-05-12T09:08:34.965Z,2.43
2023-05-12T09:11:02.461Z,2.50
2023-05-12T09:13:38.347Z,2.60
2023-05-12T09:16:11.271Z,2.47
2023-05-12T09:18:56.476Z,2.83
2023-05-12T09:21:24.134Z,2.50
2023-05-12T09:23:58.757Z,2.73
2023-05-12T09:26:27.380Z,2.37
2023-05-12T09:28:55.909Z,2.37
2023-05-12T09:31:24.801Z,1.83
2023-05-12T09:33:52.310Z,1.80
2023-05-12T09:36:24.051Z,1.80
2023-05-12T09:39:08.355Z,1.83
2023-05-12T09:41:35.563Z,1.70
2023-05-12T09:44:02.812Z,2.00
2023-05-12T09:46:29.578Z,1.47
2023-05-12T09:49:00.173Z,1.80
2023-05-12T09:51:27.403Z,1.70
2023-05-12T09:53:54.104Z,1.60
2023-05-12T09:56:22.028Z,1.70
2023-05-12T09:58:50.102Z,1.80
2023-05-12T10:01:23.356Z,1.30
2023-05-12T10:03:53.004Z,1.90
2023-05-12T10:06:40.745Z,1.60
2023-05-12T10:09:21.726Z,1.87
2023-05-12T10:11:53.515Z,1.53
2023-05-12T10:14:22.868Z,1.60
2023-05-12T10:16:50.286Z,1.90
2023-05-12T10:19:18.653Z,1.57
2023-05-12T10:21:46.957Z,1.63
2023-05-12T10:24:17.291Z,1.80
2023-05-12T10:26:44.730Z,1.50
2023-05-12T10:29:12.740Z,1.53
2023-05-12T10:31:40.004Z,1.70
2023-05-12T10:34:06.897Z,1.60
2023-05-12T10:36:47.496Z,1.33
2023-05-12T10:39:15.529Z,1.57
2023-05-12T10:41:45.483Z,1.50
2023-05-12T10:44:12.456Z,1.40
2023-05-12T10:46:39.201Z,1.50
2023-05-12T10:49:05.815Z,1.57
2023-05-12T10:51:35.137Z,1.60
2023-05-12T10:54:04.480Z,1.60
2023-05-12T10:56:43.228Z,1.60
2023-05-12T10:59:20.266Z,1.70
2023-05-12T11:02:06.612Z,1.50
2023-05-12T11:04:43.970Z,1.30
2023-05-12T11:07:14.355Z,1.50
2023-05-12T11:09:56.855Z,1.20
2023-05-12T11:12:27.310Z,1.50
2023-05-12T11:14:54.240Z,1.17
2023-05-12T11:17:20.906Z,1.20
2023-05-12T11:19:49.520Z,1.40
2023-05-12T11:22:21.458Z,1.20
2023-05-12T11:24:48.850Z,1.20
2023-05-12T11:27:17.549Z,1.50
2023-05-12T11:29:47.041Z,1.10
2023-05-12T11:32:15.681Z,1.20
2023-05-12T11:34:42.549Z,1.50
2023-05-12T11:37:09.282Z,1.40
2023-05-12T11:39:36.438Z,1.47
2023-05-12T11:42:13.608Z,1.37
2023-05-12T11:44:48.905Z,1.80
2023-05-12T11:47:16.967Z,1.43
2023-05-12T11:49:54.984Z,1.60
2023-05-12T11:52:23.588Z,1.50
2023-05-12T11:54:52.685Z,1.63
2023-05-12T11:57:35.061Z,1.60
2023-05-12T12:00:07.859Z,1.60
2023-05-12T12:02:39.642Z,1.70
2023-05-12T12:05:17.601Z,1.57
2023-05-12T12:07:44.897Z,1.60
2023-05-12T12:10:16.852Z,1.90
2023-05-12T12:12:44.611Z,1.77
2023-05-12T12:15:12.038Z,1.80
2023-05-12T12:17:39.848Z,2.00
2023-05-12T12:20:08.194Z,2.93
2023-05-12T12:22:35.312Z,2.30
2023-05-12T12:25:03.117Z,2.20
2023-05-12T12:27:30.205Z,1.83
2023-05-12T12:29:56.954Z,1.87
2023-05-12T12:32:23.724Z,1.97
2023-05-12T12:34:50.492Z,1.63
2023-05-12T12:37:17.600Z,1.70
2023-05-12T12:39:44.414Z,1.63
2023-05-12T12:42:11.065Z,2.10
2023-05-12T12:44:37.719Z,2.20
2023-05-12T12:47:05.006Z,2.23
2023-05-12T12:49:31.800Z,1.30
2023-05-12T12:51:58.467Z,1.30
2023-05-12T12:54:27.364Z,1.37
2023-05-12T12:56:55.466Z,1.50
2023-05-12T12:59:22.406Z,1.37
2023-05-12T13:01:49.239Z,2.20
2023-05-12T13:04:17.118Z,2.03
2023-05-12T13:06:43.800Z,1.53
2023-05-12T13:09:10.792Z,1.60
2023-05-12T13:11:37.568Z,1.43
2023-05-12T13:14:04.890Z,1.40
2023-05-12T13:16:31.696Z,1.40
2023-05-12T13:18:58.806Z,1.50
2023-05-12T13:21:25.751Z,1.70
2023-05-12T13:23:52.385Z,1.70
2023-05-12T13:26:19.025Z,1.90
2023-05-12T13:28:45.693Z,1.87
2023-05-12T13:31:12.584Z,1.70
2023-05-12T13:33:39.321Z,2.10
2023-05-12T13:36:06.401Z,1.80
2023-05-12T13:38:33.930Z,1.87
2023-05-12T13:41:00.783Z,1.83
2023-05-12T13:43:27.408Z,1.63
2023-05-12T13:45:54.200Z,1.87
2023-05-12T13:48:20.943Z,1.83
2023-05-12T13:50:47.618Z,1.77
2023-05-12T13:53:14.209Z,1.87
2023-05-12T13:55:41.301Z,1.50
2023-05-12T13:58:07.976Z,1.33
2023-05-12T14:00:34.738Z,1.40
2023-05-12T14:03:01.740Z,1.17
2023-05-12T14:05:28.772Z,1.40
2023-05-12T14:07:55.669Z,1.40
2023-05-12T14:10:22.367Z,1.50
2023-05-12T14:12:49.287Z,1.73
2023-05-12T14:15:28.916Z,1.90
2023-05-12T14:18:02.652Z,1.90
2023-05-12T14:20:29.317Z,2.03
2023-05-12T14:22:55.976Z,2.23
2023-05-12T14:25:23.862Z,2.10
2023-05-12T14:27:51.191Z,2.20
2023-05-12T14:30:17.939Z,2.53
2023-05-12T14:32:44.672Z,2.40
2023-05-12T14:35:13.076Z,3.07
2023-05-12T14:37:39.778Z,2.70
2023-05-12T14:40:07.365Z,2.93
2023-05-12T14:42:34.094Z,3.20
2023-05-12T14:45:00.790Z,2.97
2023-05-12T14:47:27.410Z,3.17
2023-05-12T14:49:54.436Z,2.80
2023-05-12T14:52:21.133Z,2.80
2023-05-12T14:54:47.793Z,2.97
2023-05-12T14:57:14.475Z,2.93
2023-05-12T14:59:41.193Z,3.00
2023-05-12T15:02:07.990Z,3.03
2023-05-12T15:04:34.785Z,2.70
2023-05-12T15:07:01.455Z,2.70
2023-05-12T15:09:28.107Z,2.90
2023-05-12T15:11:55.056Z,2.87
2023-05-12T15:14:21.911Z,2.67
2023-05-12T15:16:48.623Z,3.40
2023-05-12T15:19:15.564Z,3.10
2023-05-12T15:21:42.388Z,3.00
2023-05-12T15:24:09.058Z,3.17
2023-05-12T15:26:38.227Z,3.20
2023-05-12T15:29:07.245Z,3.73
2023-05-12T15:31:35.036Z,3.57
2023-05-12T15:34:01.771Z,4.23
2023-05-12T15:36:28.481Z,4.30
2023-05-12T15:38:55.220Z,4.27
2023-05-12T15:41:22.094Z,4.37
2023-05-12T15:43:48.748Z,4.57
2023-05-12T15:46:15.439Z,5.03
2023-05-12T15:48:42.156Z,4.40
2023-05-12T15:51:08.797Z,5.20
2023-05-12T15:53:35.500Z,3.80
2023-05-12T15:56:03.175Z,3.67
2023-05-12T15:58:31.184Z,3.63
2023-05-12T16:00:57.885Z,4.13
2023-05-12T16:03:24.916Z,4.30
2023-05-12T16:05:51.959Z,3.83
2023-05-12T16:08:18.855Z,3.50
2023-05-12T16:10:45.599Z,3.80
2023-05-12T16:13:13.670Z,3.70
2023-05-12T16:15:40.500Z,3.60
2023-05-12T16:18:10.195Z,3.70
2023-05-12T16:20:37.770Z,3.30
2023-05-12T16:23:04.634Z,3.10
2023-05-12T16:25:31.375Z,3.07
2023-05-12T16:27:58.125Z,3.27
2023-05-12T16:30:24.989Z,3.20
2023-05-12T16:32:51.768Z,3.07
2023-05-12T16:35:18.614Z,3.70
2023-05-12T16:37:45.442Z,3.20
2023-05-12T16:40:12.249Z,3.43
2023-05-12T16:42:39.009Z,4.00
2023-05-12T16:45:06.363Z,3.87
2023-05-12T16:47:33.044Z,4.00
2023-05-12T16:49:59.964Z,3.50
2023-05-12T16:52:27.008Z,4.10
2023-05-12T16:54:55.992Z,4.33
2023-05-12T16:57:23.235Z,4.23
2023-05-12T16:59:49.937Z,4.47
2023-05-12T17:02:16.660Z,4.13
2023-05-12T17:04:44.642Z,3.90
2023-05-12T17:07:11.453Z,4.17
2023-05-12T17:09:38.217Z,4.00
2023-05-12T17:12:06.691Z,3.90
2023-05-12T17:14:34.777Z,3.50
2023-05-12T17:17:01.448Z,3.70
2023-05-12T17:19:28.407Z,4.27
2023-05-12T17:21:55.072Z,3.87
2023-05-12T17:24:21.817Z,3.80
2023-05-12T17:26:48.435Z,3.90
2023-05-12T17:29:15.176Z,3.50
2023-05-12T17:31:41.957Z,3.60
2023-05-12T17:34:08.871Z,3.90
2023-05-12T17:36:35.651Z,3.70
2023-05-12T17:39:02.393Z,3.47
2023-05-12T17:41:29.427Z,3.40
2023-05-12T17:43:56.183Z,3.80
2023-05-12T17:46:23.046Z,3.53
2023-05-12T17:48:49.988Z,3.40
2023-05-12T17:51:17.023Z,3.33
2023-05-12T17:53:43.862Z,3.67
2023-05-12T17:56:11.330Z,3.50
2023-05-12T17:58:37.979Z,2.97
2023-05-12T18:01:04.753Z,3.30
2023-05-12T18:03:31.662Z,3.00
2023-05-12T18:05:58.425Z,3.10
2023-05-12T18:08:25.080Z,3.03
2023-05-12T18:10:51.783Z,3.17
2023-05-12T18:13:18.624Z,3.20
2023-05-12T18:15:45.284Z,3.07
2023-05-12T18:18:12.424Z,3.40
2023-05-12T18:20:39.161Z,3.07
2023-05-12T18:23:05.863Z,3.20
2023-05-12T18:25:32.533Z,3.10
2023-05-12T18:27:59.277Z,3.10
2023-05-12T18:30:26.054Z,3.27
2023-05-12T18:32:52.862Z,3.67
2023-05-12T18:35:19.822Z,4.90
2023-05-12T18:37:46.728Z,5.43
2023-05-12T18:40:13.390Z,4.97
2023-05-12T18:42:40.017Z,4.33
2023-05-12T18:45:07.204Z,4.23
2023-05-12T18:47:34.274Z,3.30
2023-05-12T18:50:01.009Z,3.00
2023-05-12T18:52:27.719Z,2.97
2023-05-12T18:54:54.349Z,2.97
2023-05-12T18:57:21.110Z,2.97
2023-05-12T18:59:47.723Z,2.53
2023-05-12T19:02:14.397Z,2.53
2023-05-12T19:04:41.178Z,2.87
2023-05-12T19:07:09.864Z,2.50
2023-05-12T19:09:37.087Z,2.23
2023-05-12T19:12:05.998Z,2.30
2023-05-12T19:14:32.988Z,2.40
2023-05-12T19:16:59.916Z,2.27
2023-05-12T19:19:26.540Z,1.97
2023-05-12T19:21:53.125Z,1.60
2023-05-12T19:24:19.917Z,1.60
2023-05-12T19:26:46.520Z,1.50
2023-05-12T19:29:13.240Z,1.40
2023-05-12T19:31:40.038Z,1.43
2023-05-12T19:34:07.153Z,1.80
2023-05-12T19:36:34.359Z,1.27
2023-05-12T19:39:01.135Z,1.30
2023-05-12T19:41:29.713Z,1.73
2023-05-12T19:43:56.470Z,1.60
2023-05-12T19:46:23.301Z,1.37
2023-05-12T19:48:51.186Z,1.60
2023-05-12T19:51:18.491Z,1.50
2023-05-12T19:53:45.439Z,1.40
2023-05-12T19:56:12.300Z,1.47
2023-05-12T19:58:39.227Z,1.33
2023-05-12T20:01:06.201Z,1.43
2023-05-12T20:03:33.183Z,1.80
2023-05-12T20:06:00.185Z,1.53
2023-05-12T20:08:27.105Z,1.10
2023-05-12T20:10:54.091Z,1.60
2023-05-12T20:13:20.984Z,1.60
2023-05-12T20:15:47.862Z,1.50
2023-05-12T20:18:15.709Z,1.50
2023-05-12T20:20:43.108Z,1.23
2023-05-12T20:23:09.833Z,1.77
2023-05-12T20:25:36.796Z,1.40
2023-05-12T20:28:03.866Z,1.67
2023-05-12T20:30:30.698Z,1.60
2023-05-12T20:32:57.425Z,1.30
2023-05-12T20:35:24.306Z,1.33
2023-05-12T20:37:51.285Z,1.20
2023-05-12T20:40:19.499Z,1.73
2023-05-12T20:42:46.961Z,2.13
2023-05-12T20:45:14.424Z,1.90
2023-05-12T20:47:41.963Z,2.60
2023-05-12T20:50:09.471Z,2.50
2023-05-12T20:52:37.017Z,2.90
2023-05-12T20:55:04.034Z,3.27
2023-05-12T20:57:30.803Z,3.20
2023-05-12T20:59:57.582Z,2.60
2023-05-12T21:02:25.300Z,2.10
2023-05-12T21:04:52.732Z,2.20
2023-05-12T21:07:20.257Z,2.10
2023-05-12T21:09:47.809Z,2.40
2023-05-12T21:12:14.528Z,2.17
2023-05-12T21:14:43.046Z,2.60
2023-05-12T21:17:10.495Z,2.10
2023-05-12T21:19:38.385Z,2.90
2023-05-12T21:22:06.881Z,2.70
2023-05-12T21:24:33.569Z,2.10
2023-05-12T21:27:04.061Z,2.20
2023-05-12T21:29:32.261Z,2.13
2023-05-12T21:31:59.385Z,1.87
2023-05-12T21:34:26.347Z,1.90
2023-05-12T21:36:53.189Z,1.93
2023-05-12T21:39:19.895Z,1.67
2023-05-12T21:41:46.580Z,1.70
2023-05-12T21:44:13.262Z,1.70
2023-05-12T21:46:40.144Z,1.77
2023-05-12T21:49:07.017Z,1.70
2023-05-12T21:51:33.949Z,1.60
2023-05-12T21:54:00.990Z,1.40
2023-05-12T21:56:27.606Z,1.40
2023-05-12T21:58:54.288Z,1.30
2023-05-12T22:01:20.969Z,1.30
2023-05-12T22:03:47.740Z,1.87
2023-05-12T22:06:14.435Z,1.10
2023-05-12T22:08:41.063Z,1.17
2023-05-12T22:11:07.872Z,0.97
2023-05-12T22:13:34.586Z,1.10
2023-05-12T22:16:01.281Z,1.00
2023-05-12T22:18:28.826Z,1.47
2023-05-12T22:20:55.447Z,1.30
2023-05-12T22:23:22.089Z,1.10
2023-05-12T22:25:48.741Z,1.57
2023-05-12T22:28:15.911Z,1.13
2023-05-12T22:30:42.588Z,1.20
2023-05-12T22:33:09.289Z,1.30
2023-05-12T22:35:35.921Z,1.10
2023-05-12T22:38:02.679Z,1.20
2023-05-12T22:40:30.190Z,0.90
2023-05-12T22:42:56.858Z,1.03
2023-05-12T22:45:23.491Z,1.10
2023-05-12T22:47:50.211Z,1.30
2023-05-12T22:50:17.140Z,1.13
2023-05-12T22:52:43.921Z,1.30
2023-05-12T22:55:11.087Z,1.43
2023-05-12T22:57:40.593Z,1.30
2023-05-12T23:00:07.605Z,1.00
2023-05-12T23:02:34.320Z,1.20
2023-05-12T23:05:01.209Z,0.93
2023-05-12T23:07:27.922Z,1.10
2023-05-12T23:09:54.543Z,1.03
2023-05-12T23:12:21.227Z,1.10
2023-05-12T23:14:47.823Z,1.10
2023-05-12T23:17:14.803Z,1.10
2023-05-12T23:19:41.467Z,1.03
2023-05-12T23:22:08.042Z,1.00
2023-05-12T23:24:36.058Z,1.10
2023-05-12T23:27:02.730Z,1.00
2023-05-12T23:29:29.606Z,0.87
2023-05-12T23:31:58.665Z,1.10
2023-05-12T23:34:25.779Z,1.03
2023-05-12T23:36:52.463Z,1.10
2023-05-12T23:39:19.092Z,1.10
2023-05-12T23:41:45.838Z,1.10
2023-05-12T23:44:12.842Z,1.10
2023-05-12T23:46:39.644Z,1.30
2023-05-12T23:49:06.400Z,1.27
2023-05-12T23:51:34.219Z,1.20
2023-05-12T23:54:00.844Z,1.00
2023-05-12T23:56:27.524Z,1.00
2023-05-12T23:58:54.225Z,1.50
